createdAt,value
2023-02-24T00:01:52.790Z,16.25
2023-02-24T00:04:21.215Z,14.98
2023-02-24T00:06:48.660Z,17.02
2023-02-24T00:09:15.860Z,15.77
2023-02-24T00:11:45.297Z,16.20
2023-02-24T00:14:18.665Z,16.38
2023-02-24T00:16:47.327Z,17.00
2023-02-24T00:19:17.854Z,15.45
2023-02-24T00:21:45.603Z,14.02
2023-02-24T00:24:13.490Z,14.52
2023-02-24T00:26:41.067Z,14.18
2023-02-24T00:29:10.554Z,15.02
2023-02-24T00:31:42.113Z,14.77
2023-02-24T00:34:12.618Z,14.18
2023-02-24T00:36:40.099Z,13.05
2023-02-24T00:39:11.670Z,14.43
2023-02-24T00:41:44.751Z,13.77
2023-02-24T00:44:14.733Z,14.20
2023-02-24T00:46:46.959Z,13.80
2023-02-24T00:49:17.389Z,14.25
2023-02-24T00:51:48.800Z,14.52
2023-02-24T00:54:17.564Z,13.98
2023-02-24T00:56:46.466Z,12.98
2023-02-24T00:59:18.636Z,12.60
2023-02-24T01:01:46.188Z,13.05
2023-02-24T01:04:14.167Z,13.18
2023-02-24T01:06:46.873Z,12.57
2023-02-24T01:09:17.384Z,12.93
2023-02-24T01:12:04.987Z,13.05
2023-02-24T01:14:34.076Z,12.70
2023-02-24T01:17:01.991Z,12.82
2023-02-24T01:19:31.881Z,11.48
2023-02-24T01:22:05.290Z,12.00
2023-02-24T01:24:34.948Z,11.63
2023-02-24T01:27:02.465Z,12.40
2023-02-24T01:29:29.463Z,11.60
2023-02-24T01:31:58.682Z,12.15
2023-02-24T01:34:28.740Z,13.00
2023-02-24T01:36:57.919Z,12.00
2023-02-24T01:39:25.983Z,12.88
2023-02-24T01:41:55.625Z,13.55
2023-02-24T01:44:25.229Z,11.45
2023-02-24T01:46:53.361Z,11.20
2023-02-24T01:49:29.500Z,12.40
2023-02-24T01:52:05.808Z,12.25
2023-02-24T01:54:35.792Z,12.98
2023-02-24T01:57:05.923Z,13.57
2023-02-24T01:59:35.572Z,12.80
2023-02-24T02:02:07.032Z,11.75
2023-02-24T02:04:50.908Z,11.55
2023-02-24T02:07:22.071Z,12.18
2023-02-24T02:09:50.412Z,11.15
2023-02-24T02:12:17.769Z,11.18
2023-02-24T02:14:52.233Z,12.55
2023-02-24T02:17:37.327Z,12.20
2023-02-24T02:20:28.690Z,14.27
2023-02-24T02:23:29.119Z,14.60
2023-02-24T02:26:18.963Z,13.95
2023-02-24T02:29:06.672Z,14.43
2023-02-24T02:32:31.820Z,13.90
2023-02-24T02:35:19.237Z,14.80
2023-02-24T02:37:58.961Z,15.38
2023-02-24T02:40:39.462Z,14.82
2023-02-24T02:43:17.284Z,14.70
2023-02-24T02:46:04.976Z,16.75
2023-02-24T02:48:37.635Z,17.85
2023-02-24T02:51:11.354Z,18.88
2023-02-24T02:54:08.082Z,19.85
2023-02-24T02:56:41.641Z,18.70
2023-02-24T02:59:12.715Z,18.95
2023-02-24T03:01:47.281Z,18.67
2023-02-24T03:04:17.721Z,17.20
2023-02-24T03:06:49.425Z,17.88
2023-02-24T03:09:22.525Z,17.13
2023-02-24T03:11:55.692Z,18.55
2023-02-24T03:14:28.356Z,17.60
2023-02-24T03:16:58.882Z,17.23
2023-02-24T03:19:37.233Z,16.42
2023-02-24T03:22:13.751Z,16.92
2023-02-24T03:24:42.276Z,17.92
2023-02-24T03:27:23.140Z,15.55
2023-02-24T03:29:52.714Z,16.58
2023-02-24T03:32:34.828Z,15.65
2023-02-24T03:35:16.934Z,15.85
2023-02-24T03:37:47.425Z,15.20
2023-02-24T03:40:15.951Z,15.90
2023-02-24T03:42:51.235Z,15.50
2023-02-24T03:45:22.636Z,13.90
2023-02-24T03:47:51.218Z,12.43
2023-02-24T03:50:20.247Z,13.25
2023-02-24T03:53:12.378Z,12.77
2023-02-24T03:56:00.631Z,13.73
2023-02-24T03:58:48.180Z,14.43
2023-02-24T04:01:31.886Z,14.18
2023-02-24T04:04:23.398Z,14.82
2023-02-24T04:07:23.342Z,15.50
2023-02-24T04:10:10.129Z,15.88
2023-02-24T04:12:55.461Z,15.45
2023-02-24T04:15:29.706Z,15.43
2023-02-24T04:18:01.268Z,16.45
2023-02-24T04:20:35.682Z,16.55
2023-02-24T04:23:29.961Z,16.30
2023-02-24T04:25:57.133Z,16.20
2023-02-24T04:28:27.379Z,15.70
2023-02-24T04:31:00.809Z,14.73
2023-02-24T04:33:28.062Z,14.98
2023-02-24T04:35:56.264Z,15.30
2023-02-24T04:38:23.764Z,13.90
2023-02-24T04:40:51.449Z,14.52
2023-02-24T04:43:19.114Z,16.42
2023-02-24T04:45:46.392Z,15.77
2023-02-24T04:48:13.331Z,15.18
2023-02-24T04:50:43.492Z,14.65
2023-02-24T04:53:13.312Z,15.10
2023-02-24T04:55:43.037Z,13.73
2023-02-24T04:58:19.413Z,14.93
2023-02-24T05:00:49.070Z,15.15
2023-02-24T05:03:17.581Z,15.98
2023-02-24T05:05:56.754Z,15.60
2023-02-24T05:08:25.403Z,14.55
2023-02-24T05:10:52.238Z,14.73
2023-02-24T05:13:21.984Z,13.73
2023-02-24T05:15:49.774Z,15.13
2023-02-24T05:18:18.772Z,15.55
2023-02-24T05:21:06.979Z,15.45
2023-02-24T05:23:44.590Z,13.90
2023-02-24T05:26:17.638Z,14.68
2023-02-24T05:28:52.933Z,15.52
2023-02-24T05:31:29.330Z,17.13
2023-02-24T05:33:58.699Z,15.48
2023-02-24T05:36:29.237Z,16.92
2023-02-24T05:39:04.744Z,16.08
2023-02-24T05:41:36.029Z,17.90
2023-02-24T05:44:08.674Z,18.95
2023-02-24T05:46:38.483Z,35.13
2023-02-24T05:49:11.268Z,27.73
2023-02-24T05:51:39.349Z,20.77
2023-02-24T05:54:08.540Z,20.48
2023-02-24T05:56:38.674Z,14.50
2023-02-24T05:59:09.100Z,15.13
2023-02-24T06:01:37.763Z,13.93
2023-02-24T06:04:06.907Z,13.07
2023-02-24T06:06:40.576Z,21.67
2023-02-24T06:09:12.743Z,18.98
2023-02-24T06:11:45.285Z,18.33
2023-02-24T06:14:13.303Z,19.40
2023-02-24T06:16:41.902Z,20.80
2023-02-24T06:19:10.944Z,20.23
2023-02-24T06:21:41.407Z,21.23
2023-02-24T06:24:14.601Z,22.23
2023-02-24T06:26:45.773Z,22.95
2023-02-24T06:29:17.731Z,23.13
2023-02-24T06:31:45.721Z,21.63
2023-02-24T06:34:18.300Z,20.48
2023-02-24T06:36:47.058Z,21.42
2023-02-24T06:39:14.666Z,23.67
2023-02-24T06:41:42.628Z,20.95
2023-02-24T06:44:09.641Z,20.50
2023-02-24T06:46:37.248Z,20.25
2023-02-24T06:49:04.662Z,17.85
2023-02-24T06:51:32.015Z,20.83
2023-02-24T06:53:59.766Z,19.10
2023-02-24T06:56:27.551Z,19.80
2023-02-24T06:58:56.378Z,18.95
2023-02-24T07:01:26.104Z,18.58
2023-02-24T07:04:17.502Z,17.85
2023-02-24T07:06:52.280Z,15.10
2023-02-24T07:09:22.153Z,17.17
2023-02-24T07:11:52.418Z,17.48
2023-02-24T07:14:21.779Z,15.15
2023-02-24T07:16:54.064Z,14.43
2023-02-24T07:19:24.908Z,15.93
2023-02-24T07:21:59.792Z,15.82
2023-02-24T07:24:39.827Z,16.20
2023-02-24T07:27:12.708Z,17.40
2023-02-24T07:29:39.861Z,18.88
2023-02-24T07:32:09.313Z,17.90
2023-02-24T07:34:40.596Z,18.85
2023-02-24T07:37:09.276Z,20.48
2023-02-24T07:39:39.986Z,18.13
2023-02-24T07:42:08.997Z,15.68
2023-02-24T07:44:45.513Z,16.73
2023-02-24T07:47:12.444Z,16.30
2023-02-24T07:49:41.096Z,16.17
2023-02-24T07:52:08.460Z,14.02
2023-02-24T07:54:35.567Z,13.60
2023-02-24T07:57:02.594Z,14.35
2023-02-24T07:59:35.255Z,14.00
2023-02-24T08:02:04.974Z,14.30
2023-02-24T08:04:33.116Z,13.00
2023-02-24T08:07:02.814Z,13.20
2023-02-24T08:09:45.589Z,12.73
2023-02-24T08:12:17.940Z,12.35
2023-02-24T08:14:51.438Z,12.07
2023-02-24T08:17:20.202Z,12.05
2023-02-24T08:19:48.903Z,10.93
2023-02-24T08:22:19.935Z,9.70
2023-02-24T08:24:50.368Z,9.93
2023-02-24T08:27:22.291Z,10.80
2023-02-24T08:30:00.162Z,11.57
2023-02-24T08:32:43.896Z,10.35
2023-02-24T08:35:16.463Z,8.80
2023-02-24T08:37:48.891Z,8.80
2023-02-24T08:40:31.642Z,9.43
2023-02-24T08:42:59.701Z,9.77
2023-02-24T08:45:38.483Z,9.80
2023-02-24T08:48:18.295Z,9.77
2023-02-24T08:50:45.754Z,9.40
2023-02-24T08:53:19.241Z,8.52
2023-02-24T08:55:51.725Z,8.90
2023-02-24T08:58:19.720Z,8.95
2023-02-24T09:00:49.692Z,7.63
2023-02-24T09:03:28.247Z,7.25
2023-02-24T09:06:05.389Z,8.13
2023-02-24T09:08:38.523Z,7.07
2023-02-24T09:11:08.805Z,7.72
2023-02-24T09:13:51.538Z,7.90
2023-02-24T09:16:19.962Z,8.45
2023-02-24T09:19:07.097Z,7.90
2023-02-24T09:21:49.210Z,7.88
2023-02-24T09:24:27.077Z,8.65
2023-02-24T09:27:00.290Z,7.90
2023-02-24T09:29:34.989Z,8.52
2023-02-24T09:32:06.737Z,8.63
2023-02-24T09:34:38.281Z,8.02
2023-02-24T09:37:05.489Z,8.35
2023-02-24T09:39:56.992Z,8.18
2023-02-24T09:42:34.044Z,8.38
2023-02-24T09:45:04.336Z,8.15
2023-02-24T09:47:40.506Z,7.63
2023-02-24T09:50:40.271Z,9.07
2023-02-24T09:53:17.320Z,8.90
2023-02-24T09:56:05.387Z,9.43
2023-02-24T09:58:47.893Z,8.52
2023-02-24T10:01:42.978Z,10.65
2023-02-24T10:04:21.465Z,9.82
2023-02-24T10:07:11.842Z,11.40
2023-02-24T10:10:19.474Z,10.77
2023-02-24T10:13:17.310Z,10.85
2023-02-24T10:15:59.295Z,10.25
2023-02-24T10:18:32.945Z,8.95
2023-02-24T10:21:06.543Z,10.50
2023-02-24T10:23:46.691Z,8.68
2023-02-24T10:26:32.143Z,8.57
2023-02-24T10:29:22.829Z,8.80
2023-02-24T10:31:57.971Z,9.23
2023-02-24T10:34:31.869Z,8.95
2023-02-24T10:37:14.038Z,8.48
2023-02-24T10:39:51.912Z,8.50
2023-02-24T10:42:26.351Z,9.02
2023-02-24T10:45:23.676Z,8.13
2023-02-24T10:47:57.407Z,7.75
2023-02-24T10:50:32.615Z,8.52
2023-02-24T10:53:37.334Z,8.43
2023-02-24T10:56:15.207Z,7.93
2023-02-24T10:58:56.523Z,8.63
2023-02-24T11:01:49.795Z,7.88
2023-02-24T11:04:43.696Z,8.73
2023-02-24T11:07:25.166Z,8.68
2023-02-24T11:10:11.541Z,8.77
2023-02-24T11:13:10.540Z,8.95
2023-02-24T11:15:57.668Z,9.18
2023-02-24T11:18:27.345Z,9.27
2023-02-24T11:21:06.198Z,9.27
2023-02-24T11:23:46.076Z,10.90
2023-02-24T11:26:21.479Z,9.07
2023-02-24T11:29:26.661Z,9.48
2023-02-24T11:32:09.034Z,9.07
2023-02-24T11:34:49.603Z,9.18
2023-02-24T11:37:40.673Z,9.57
2023-02-24T11:40:19.932Z,8.18
2023-02-24T11:43:11.965Z,8.82
2023-02-24T11:45:52.540Z,9.35
2023-02-24T11:48:27.931Z,9.05
2023-02-24T11:51:31.372Z,9.18
2023-02-24T11:54:02.884Z,8.57
2023-02-24T11:56:47.036Z,9.15
2023-02-24T11:59:29.438Z,9.43
2023-02-24T12:02:12.398Z,9.00
2023-02-24T12:05:09.553Z,8.73
2023-02-24T12:08:03.658Z,9.38
2023-02-24T12:10:35.683Z,9.27
2023-02-24T12:13:11.938Z,9.77
2023-02-24T12:15:47.273Z,9.18
2023-02-24T12:18:24.364Z,8.88
2023-02-24T12:20:57.778Z,9.27
2023-02-24T12:23:30.835Z,9.48
2023-02-24T12:26:27.210Z,9.80
2023-02-24T12:29:07.335Z,8.32
2023-02-24T12:32:15.838Z,7.82
2023-02-24T12:35:10.261Z,8.77
2023-02-24T12:37:52.228Z,8.18
2023-02-24T12:40:29.740Z,8.10
2023-02-24T12:43:08.639Z,7.30
2023-02-24T12:45:54.160Z,8.32
2023-02-24T12:48:42.276Z,7.00
2023-02-24T12:51:19.747Z,7.05
2023-02-24T12:54:10.590Z,7.43
2023-02-24T12:56:50.011Z,7.15
2023-02-24T12:59:22.520Z,7.07
2023-02-24T13:01:55.542Z,6.25
2023-02-24T13:04:40.789Z,6.93
2023-02-24T13:07:30.749Z,7.35
2023-02-24T13:10:28.555Z,6.95
2023-02-24T13:13:14.610Z,6.68
2023-02-24T13:15:54.138Z,6.40
2023-02-24T13:18:30.628Z,6.90
2023-02-24T13:21:03.743Z,6.78
2023-02-24T13:23:31.766Z,7.05
2023-02-24T13:25:59.003Z,6.75
2023-02-24T13:28:36.620Z,7.07
2023-02-24T13:31:12.530Z,6.35
2023-02-24T13:33:42.593Z,7.00
2023-02-24T13:36:13.477Z,7.03
2023-02-24T13:38:46.554Z,6.97
2023-02-24T13:41:22.171Z,7.07
2023-02-24T13:43:57.973Z,6.90
2023-02-24T13:46:28.345Z,6.35
2023-02-24T13:49:10.645Z,6.90
2023-02-24T13:51:49.037Z,6.07
2023-02-24T13:54:48.904Z,6.65
2023-02-24T13:57:34.602Z,6.35
2023-02-24T14:00:24.979Z,6.72
2023-02-24T14:02:53.383Z,7.20
2023-02-24T14:05:34.394Z,6.95
2023-02-24T14:08:03.378Z,7.10
2023-02-24T14:10:34.595Z,6.28
2023-02-24T14:13:14.728Z,6.45
2023-02-24T14:15:45.619Z,6.85
2023-02-24T14:18:22.912Z,6.18
2023-02-24T14:20:49.710Z,7.03
2023-02-24T14:23:34.696Z,6.32
2023-02-24T14:26:08.767Z,6.53
2023-02-24T14:28:38.156Z,6.38
2023-02-24T14:31:11.508Z,7.00
2023-02-24T14:33:41.383Z,6.22
2023-02-24T14:36:18.128Z,6.32
2023-02-24T14:38:45.927Z,7.07
2023-02-24T14:41:22.415Z,6.45
2023-02-24T14:43:49.991Z,7.05
2023-02-24T14:46:16.947Z,5.93
2023-02-24T14:48:44.851Z,6.43
2023-02-24T14:51:34.928Z,7.53
2023-02-24T14:54:08.038Z,7.20
2023-02-24T14:56:36.808Z,6.38
2023-02-24T14:59:21.256Z,6.38
2023-02-24T15:01:50.625Z,6.65
2023-02-24T15:04:36.875Z,6.70
2023-02-24T15:07:17.411Z,6.30
2023-02-24T15:09:49.143Z,7.47
2023-02-24T15:12:27.620Z,7.10
2023-02-24T15:15:08.503Z,7.53
2023-02-24T15:17:41.007Z,6.32
2023-02-24T15:20:29.060Z,6.20
2023-02-24T15:22:56.989Z,6.03
2023-02-24T15:25:45.339Z,6.38
2023-02-24T15:28:33.001Z,6.72
2023-02-24T15:31:02.001Z,7.05
2023-02-24T15:33:41.770Z,8.05
2023-02-24T15:36:33.411Z,7.75
2023-02-24T15:39:07.315Z,9.07
2023-02-24T15:41:45.750Z,7.78
2023-02-24T15:44:30.164Z,7.53
2023-02-24T15:46:59.634Z,7.28
2023-02-24T15:49:26.947Z,8.43
2023-02-24T15:51:59.511Z,7.80
2023-02-24T15:54:31.290Z,8.20
2023-02-24T15:56:59.482Z,7.10
2023-02-24T15:59:26.848Z,7.40
2023-02-24T16:01:54.074Z,8.32
2023-02-24T16:04:22.671Z,8.48
2023-02-24T16:06:56.753Z,8.25
2023-02-24T16:09:32.471Z,7.07
2023-02-24T16:12:00.623Z,6.43
2023-02-24T16:14:27.503Z,7.55
2023-02-24T16:16:54.332Z,8.80
2023-02-24T16:19:21.241Z,7.97
2023-02-24T16:21:48.202Z,7.95
2023-02-24T16:24:15.036Z,8.38
2023-02-24T16:26:41.927Z,9.55
2023-02-24T16:29:14.435Z,8.43
2023-02-24T16:31:41.680Z,8.75
2023-02-24T16:34:12.201Z,10.40
2023-02-24T16:36:39.066Z,9.77
2023-02-24T16:39:06.088Z,9.80
2023-02-24T16:41:33.352Z,7.93
2023-02-24T16:44:02.859Z,8.88
2023-02-24T16:46:37.586Z,8.40
2023-02-24T16:49:08.232Z,8.80
2023-02-24T16:51:35.618Z,9.80
2023-02-24T16:54:03.618Z,9.27
2023-02-24T16:56:30.410Z,8.82
2023-02-24T16:58:57.429Z,11.35
2023-02-24T17:01:24.387Z,15.77
2023-02-24T17:03:54.037Z,13.35
2023-02-24T17:06:22.684Z,11.88
2023-02-24T17:08:50.943Z,12.00
2023-02-24T17:11:23.010Z,13.82
2023-02-24T17:13:50.113Z,12.68
2023-02-24T17:16:16.873Z,13.10
2023-02-24T17:18:43.791Z,12.85
2023-02-24T17:21:14.144Z,13.23
2023-02-24T17:23:42.612Z,12.50
2023-02-24T17:26:13.029Z,13.60
2023-02-24T17:28:40.073Z,11.15
2023-02-24T17:31:09.747Z,11.00
2023-02-24T17:33:36.685Z,12.25
2023-02-24T17:36:03.649Z,12.23
2023-02-24T17:38:30.561Z,11.48
2023-02-24T17:40:57.891Z,12.50
2023-02-24T17:43:24.787Z,11.32
2023-02-24T17:45:53.035Z,11.50
2023-02-24T17:48:20.625Z,11.05
2023-02-24T17:50:48.692Z,11.23
2023-02-24T17:53:15.958Z,10.82
2023-02-24T17:56:01.075Z,11.70
2023-02-24T17:58:29.193Z,10.25
2023-02-24T18:00:56.226Z,11.27
2023-02-24T18:03:23.687Z,10.23
2023-02-24T18:06:15.744Z,11.93
2023-02-24T18:08:42.689Z,16.42
2023-02-24T18:11:14.614Z,13.10
2023-02-24T18:13:41.602Z,11.38
2023-02-24T18:16:14.385Z,11.48
2023-02-24T18:18:42.706Z,11.18
2023-02-24T18:21:09.734Z,13.85
2023-02-24T18:23:38.233Z,12.02
2023-02-24T18:26:07.863Z,13.07
2023-02-24T18:28:34.975Z,11.77
2023-02-24T18:31:09.167Z,11.20
2023-02-24T18:33:36.236Z,11.38
2023-02-24T18:36:03.859Z,11.10
2023-02-24T18:38:30.836Z,10.60
2023-02-24T18:41:09.232Z,11.43
2023-02-24T18:43:36.221Z,12.20
2023-02-24T18:46:06.208Z,13.07
2023-02-24T18:48:34.377Z,13.60
2023-02-24T18:51:01.796Z,12.32
2023-02-24T18:53:37.023Z,12.38
2023-02-24T18:56:09.310Z,11.77
2023-02-24T18:58:37.351Z,14.57
2023-02-24T19:01:20.470Z,14.45
2023-02-24T19:03:48.703Z,13.90
2023-02-24T19:06:19.190Z,13.25
2023-02-24T19:08:47.319Z,13.23
2023-02-24T19:11:19.807Z,12.90
2023-02-24T19:13:50.464Z,12.73
2023-02-24T19:16:18.429Z,11.75
2023-02-24T19:18:48.026Z,10.38
2023-02-24T19:21:14.842Z,11.60
2023-02-24T19:23:41.725Z,12.85
2023-02-24T19:26:20.394Z,11.73
2023-02-24T19:28:47.595Z,10.95
2023-02-24T19:31:18.368Z,11.40
2023-02-24T19:33:45.427Z,11.50
2023-02-24T19:36:12.719Z,11.70
2023-02-24T19:38:42.778Z,12.23
2023-02-24T19:41:09.567Z,12.00
2023-02-24T19:43:36.361Z,12.43
2023-02-24T19:46:07.150Z,12.10
2023-02-24T19:48:34.539Z,12.73
2023-02-24T19:51:08.349Z,11.38
2023-02-24T19:53:35.504Z,12.10
2023-02-24T19:56:02.625Z,14.65
2023-02-24T19:58:30.018Z,12.57
2023-02-24T20:01:03.465Z,13.00
2023-02-24T20:03:30.764Z,11.88
2023-02-24T20:05:57.601Z,12.18
2023-02-24T20:08:24.503Z,12.57
2023-02-24T20:11:05.331Z,12.60
2023-02-24T20:13:32.470Z,14.88
2023-02-24T20:16:06.466Z,13.75
2023-02-24T20:18:33.312Z,14.80
2023-02-24T20:21:01.874Z,14.52
2023-02-24T20:23:29.371Z,10.90
2023-02-24T20:25:56.905Z,9.70
2023-02-24T20:28:24.537Z,9.43
2023-02-24T20:30:51.406Z,6.15
2023-02-24T20:33:18.759Z,5.55
2023-02-24T20:35:45.862Z,4.25
2023-02-24T20:38:13.439Z,4.10
2023-02-24T20:40:40.446Z,4.30
2023-02-24T20:43:09.040Z,4.35
2023-02-24T20:45:38.261Z,5.25
2023-02-24T20:48:06.666Z,4.95
2023-02-24T20:50:34.289Z,4.38
2023-02-24T20:53:03.577Z,4.53
2023-02-24T20:55:30.864Z,4.63
2023-02-24T20:57:57.853Z,4.13
2023-02-24T21:00:25.992Z,4.80
2023-02-24T21:02:53.381Z,5.25
2023-02-24T21:05:23.014Z,4.38
2023-02-24T21:07:50.690Z,5.40
2023-02-24T21:10:19.071Z,5.00
2023-02-24T21:12:47.291Z,5.40
2023-02-24T21:15:14.630Z,6.32
2023-02-24T21:17:41.991Z,6.13
2023-02-24T21:20:11.161Z,6.28
2023-02-24T21:22:39.548Z,6.85
2023-02-24T21:25:13.463Z,6.60
2023-02-24T21:27:40.480Z,6.60
2023-02-24T21:30:08.892Z,7.03
2023-02-24T21:32:36.302Z,7.82
2023-02-24T21:35:03.628Z,7.53
2023-02-24T21:37:30.864Z,8.57
2023-02-24T21:39:57.756Z,7.97
2023-02-24T21:42:24.794Z,7.57
2023-02-24T21:44:51.898Z,8.90
2023-02-24T21:47:20.449Z,9.35
2023-02-24T21:49:47.736Z,8.77
2023-02-24T21:52:14.605Z,8.60
2023-02-24T21:54:42.352Z,8.98
2023-02-24T21:57:09.104Z,8.88
2023-02-24T21:59:35.933Z,8.90
2023-02-24T22:02:02.859Z,8.88
2023-02-24T22:04:29.710Z,8.77
2023-02-24T22:06:56.503Z,9.10
2023-02-24T22:09:23.575Z,10.07
2023-02-24T22:11:50.528Z,10.57
2023-02-24T22:14:18.174Z,10.23
2023-02-24T22:16:45.155Z,11.23
2023-02-24T22:19:12.526Z,10.77
2023-02-24T22:21:42.373Z,10.57
2023-02-24T22:24:13.287Z,11.82
2023-02-24T22:26:40.709Z,11.88
2023-02-24T22:29:07.876Z,12.38
2023-02-24T22:31:39.792Z,11.90
2023-02-24T22:34:08.723Z,14.15
2023-02-24T22:36:37.503Z,13.23
2023-02-24T22:39:05.475Z,14.13
2023-02-24T22:41:34.429Z,13.00
2023-02-24T22:44:02.964Z,13.63
2023-02-24T22:46:35.716Z,13.05
2023-02-24T22:49:02.992Z,13.55
2023-02-24T22:51:30.165Z,12.02
2023-02-24T22:53:57.428Z,13.18
2023-02-24T22:56:26.812Z,13.75
2023-02-24T22:58:54.667Z,14.20
2023-02-24T23:01:44.351Z,13.88
2023-02-24T23:04:16.600Z,14.13
2023-02-24T23:06:44.573Z,14.13
2023-02-24T23:09:13.248Z,15.23
2023-02-24T23:11:41.496Z,13.80
2023-02-24T23:14:13.438Z,13.65
2023-02-24T23:16:44.391Z,13.77
2023-02-24T23:19:16.355Z,14.07
2023-02-24T23:21:49.773Z,13.63
2023-02-24T23:24:18.009Z,13.05
2023-02-24T23:26:51.899Z,12.50
2023-02-24T23:29:19.716Z,14.32
2023-02-24T23:31:47.652Z,12.75
2023-02-24T23:34:15.603Z,13.20
2023-02-24T23:36:44.616Z,13.38
2023-02-24T23:39:16.851Z,13.45
2023-02-24T23:41:44.081Z,13.90
2023-02-24T23:44:12.432Z,12.50
2023-02-24T23:46:39.319Z,14.00
2023-02-24T23:49:06.196Z,14.02
2023-02-24T23:51:47.174Z,14.55
2023-02-24T23:54:15.755Z,13.73
2023-02-24T23:56:42.617Z,14.75
2023-02-24T23:59:09.684Z,14.95
